Current | Forecast
Updated: 4:30 PM +10 on December 13, 2017
Observed at Khabarovsk, Russia
Temperature 7°F
Windchill -5°F
Humidity 85%
Dew Point 3°F
Wind West at 7 mph
Pressure 30.24 in (Rising)
Conditions Light Snow Showers
Visibility 5.0 miles
UV 0 out of 16
Clouds Mostly Cloudy (BKN) : 3600 ft
Yesterday's Maximum 14°F
Yesterday's Minimum 7°F approx.
Yesterday's Heating Degree Days 55 approx.
Sunrise8:38 AM +10
Sunset5:07 PM +10
Moon Rise3:05 AM +10
Moon Set2:47 PM +10
Moon PhaseMoon Phase
Waning Crescent
Raw METARMETAR UHHH 130630Z 27003MPS 8000 -SHSN BKN036CB M14/M16 Q1024 R23L/491040 NOSIG RMK QFE761/1015


Monday
. High: 62° F.
Tuesday
. High: 48° F.
Wednesday
. High: 51° F.
Thursday
. High: 53° F.
Friday
. High: 46° F.
Saturday
. High: 51° F.
Sunday
. High: 51° F.
Monday
. High: 62° F.

Units: English | Metric

Find the Weather for any City, State or Zipcode, or Country:

U.S. State List | Severe Weather | Tropical Storms | Ski Conditions
United States | Canada | Central America | South America | Asia | Europe | Australia | Africa | Islands

Weather Underground

© Copyright 2017
The Weather Company, LLC